Datum - Zeit
Döttingen
TemperaturTaupunktFeuchteSolar Wind aus
Richtung
Windböenaus
Richtung
Luftdruck
(QFF)
RegenRegen
Stärke
21.01.2020 - 00.00Uhr0.4 °C-2.2 °C82 %0.0 W/m²4.5 km/hOst-NO16.2 km/hNord-NO1042.1 hPa0.0 mm0.0 mm/h
21.01.2020 - 00.05Uhr0.4 °C-2.3 °C82 %0.0 W/m²6.5 km/hNordosten16.2 km/hNordosten1042.1 hPa0.0 mm0.0 mm/h
21.01.2020 - 00.10Uhr0.4 °C-2.1 °C83 %0.0 W/m²6.4 km/hNordosten12.2 km/hNord-NO1042.0 hPa0.0 mm0.0 mm/h
21.01.2020 - 00.15Uhr0.3 °C-2.2 °C83 %0.0 W/m²5.6 km/hOst-NO12.2 km/hNord-NO1042.0 hPa0.0 mm0.0 mm/h
21.01.2020 - 00.20Uhr0.4 °C-2.1 °C83 %0.0 W/m²4.4 km/hOst-NO10.1 km/hNord-NO1042.1 hPa0.0 mm0.0 mm/h
21.01.2020 - 00.25Uhr0.4 °C-2.2 °C82 %0.0 W/m²2.8 km/hOst-NO8.3 km/hOst-NO1042.0 hPa0.0 mm0.0 mm/h
21.01.2020 - 00.30Uhr0.3 °C-2.3 °C82 %0.0 W/m²3.6 km/hOst-NO8.3 km/hOst-NO1042.0 hPa0.0 mm0.0 mm/h
21.01.2020 - 00.35Uhr0.2 °C-2.2 °C83 %0.0 W/m²3.6 km/hNordosten8.3 km/hNordosten1042.0 hPa0.0 mm0.0 mm/h
21.01.2020 - 00.40Uhr0.2 °C-2.3 °C83 %0.0 W/m²3.3 km/hNordosten8.3 km/hNordosten1041.9 hPa0.0 mm0.0 mm/h
21.01.2020 - 00.45Uhr0.2 °C-2.3 °C83 %0.0 W/m²4.0 km/hNordosten8.3 km/hNordosten1041.9 hPa0.0 mm0.0 mm/h
21.01.2020 - 00.50Uhr0.2 °C-2.3 °C83 %0.0 W/m²2.2 km/hNordosten5.8 km/hNordosten1041.9 hPa0.0 mm0.0 mm/h
21.01.2020 - 00.55Uhr0.1 °C-2.2 °C85 %0.0 W/m²2.8 km/hNordosten5.8 km/hNordosten1041.9 hPa0.0 mm0.0 mm/h
21.01.2020 - 01.00Uhr-0.5 °C-2.8 °C84 %0.0 W/m²2.1 km/hNordosten4.0 km/hNordosten1041.9 hPa0.0 mm0.0 mm/h
21.01.2020 - 01.05Uhr-0.8 °C-2.9 °C85 %0.0 W/m²1.9 km/hNordosten4.0 km/hNordosten1041.9 hPa0.0 mm0.0 mm/h
21.01.2020 - 01.10Uhr-0.6 °C-2.7 °C86 %0.0 W/m²1.6 km/hNordosten4.0 km/hNordosten1041.9 hPa0.0 mm0.0 mm/h
21.01.2020 - 01.15Uhr-0.5 °C-2.6 °C86 %0.0 W/m²1.4 km/hNordosten4.0 km/hNordosten1041.9 hPa0.0 mm0.0 mm/h
21.01.2020 - 01.20Uhr-0.4 °C-2.6 °C85 %0.0 W/m²1.5 km/hNordosten5.8 km/hNordosten1041.8 hPa0.0 mm0.0 mm/h
21.01.2020 - 01.25Uhr-0.5 °C-2.7 °C85 %0.0 W/m²0.0 km/hNordosten0.0 km/hNorden1041.8 hPa0.0 mm0.0 mm/h
21.01.2020 - 01.30Uhr-0.7 °C-2.9 °C85 %0.0 W/m²1.7 km/hNordosten5.8 km/hNordosten1041.8 hPa0.0 mm0.0 mm/h
21.01.2020 - 01.35Uhr-0.8 °C-3.0 °C85 %0.0 W/m²1.4 km/hNordosten4.0 km/hNordosten1041.8 hPa0.0 mm0.0 mm/h
21.01.2020 - 01.40Uhr-0.9 °C-2.8 °C87 %0.0 W/m²1.1 km/hNordosten4.0 km/hNordosten1041.7 hPa0.0 mm0.0 mm/h
21.01.2020 - 01.45Uhr-0.7 °C-2.7 °C86 %0.0 W/m²0.5 km/hNordosten1.8 km/hNordosten1041.7 hPa0.0 mm0.0 mm/h
21.01.2020 - 01.50Uhr-0.7 °C-2.7 °C86 %0.0 W/m²0.2 km/hNordosten1.8 km/hNordosten1041.7 hPa0.0 mm0.0 mm/h
21.01.2020 - 01.55Uhr-0.8 °C-2.8 °C86 %0.0 W/m²2.9 km/hNordosten8.3 km/hNordosten1041.7 hPa0.0 mm0.0 mm/h
21.01.2020 - 02.00Uhr-0.9 °C-2.9 °C86 %0.0 W/m²1.8 km/hNordosten5.8 km/hNordosten1041.8 hPa0.0 mm0.0 mm/h
21.01.2020 - 02.05Uhr-0.7 °C-2.6 °C87 %0.0 W/m²1.1 km/hNordosten4.0 km/hNordosten1041.7 hPa0.0 mm0.0 mm/h
21.01.2020 - 02.10Uhr-0.5 °C-2.6 °C86 %0.0 W/m²2.1 km/hNordosten5.8 km/hNord-NO1041.8 hPa0.0 mm0.0 mm/h
21.01.2020 - 02.15Uhr-0.5 °C-2.7 °C86 %0.0 W/m²2.3 km/hNord-NO5.8 km/hNord-NO1041.8 hPa0.0 mm0.0 mm/h
21.01.2020 - 02.20Uhr-0.4 °C-2.5 °C85 %0.0 W/m²2.1 km/hNord-NO5.8 km/hNord-NO1041.8 hPa0.0 mm0.0 mm/h
21.01.2020 - 02.25Uhr-0.4 °C-2.6 °C85 %0.0 W/m²1.4 km/hNord-NO4.0 km/hNord-NO1041.8 hPa0.0 mm0.0 mm/h
21.01.2020 - 02.30Uhr-0.4 °C-2.6 °C85 %0.0 W/m²3.1 km/hNord-NO8.3 km/hNordosten1041.8 hPa0.0 mm0.0 mm/h
21.01.2020 - 02.35Uhr-0.4 °C-2.6 °C85 %0.0 W/m²1.0 km/hNordosten4.0 km/hNordosten1041.8 hPa0.0 mm0.0 mm/h
21.01.2020 - 02.40Uhr-0.4 °C-2.6 °C85 %0.0 W/m²3.1 km/hOst-NO5.8 km/hOst-NO1041.8 hPa0.0 mm0.0 mm/h
21.01.2020 - 02.45Uhr-0.4 °C-2.6 °C85 %0.0 W/m²1.7 km/hOst-NO5.8 km/hOst-NO1041.8 hPa0.0 mm0.0 mm/h
21.01.2020 - 02.50Uhr-0.6 °C-2.8 °C85 %0.0 W/m²0.4 km/hOst-NO1.8 km/hOst-NO1041.8 hPa0.0 mm0.0 mm/h
21.01.2020 - 02.55Uhr-0.6 °C-2.7 °C86 %0.0 W/m²0.0 km/hOst-NO0.0 km/hNorden1041.7 hPa0.0 mm0.0 mm/h
21.01.2020 - 03.00Uhr-0.7 °C-2.7 °C86 %0.0 W/m²2.7 km/hOst-NO5.8 km/hOst-NO1041.7 hPa0.0 mm0.0 mm/h
21.01.2020 - 03.05Uhr-0.6 °C-2.7 °C86 %0.0 W/m²1.5 km/hOst-NO8.3 km/hOst-NO1041.6 hPa0.0 mm0.0 mm/h
21.01.2020 - 03.10Uhr-0.6 °C-2.7 °C86 %0.0 W/m²2.2 km/hOst-NO5.8 km/hOst-NO1041.6 hPa0.0 mm0.0 mm/h
21.01.2020 - 03.15Uhr-0.8 °C-2.9 °C86 %0.0 W/m²0.5 km/hOst-NO1.8 km/hOst-NO1041.6 hPa0.0 mm0.0 mm/h
21.01.2020 - 03.20Uhr-0.7 °C-2.8 °C86 %0.0 W/m²1.4 km/hOst-NO5.8 km/hOst-NO1041.6 hPa0.0 mm0.0 mm/h
21.01.2020 - 03.25Uhr-0.6 °C-2.8 °C85 %0.0 W/m²2.6 km/hOst-NO8.3 km/hOst-NO1041.6 hPa0.0 mm0.0 mm/h
21.01.2020 - 03.30Uhr-0.8 °C-2.9 °C85 %0.0 W/m²0.7 km/hOst-NO4.0 km/hOst-NO1041.6 hPa0.0 mm0.0 mm/h
21.01.2020 - 03.35Uhr-1.2 °C-3.2 °C86 %0.0 W/m²0.0 km/hOst-NO0.0 km/hNorden1041.6 hPa0.0 mm0.0 mm/h
21.01.2020 - 03.40Uhr-1.2 °C-3.1 °C87 %0.0 W/m²0.9 km/hOst-NO4.0 km/hOst-NO1041.6 hPa0.0 mm0.0 mm/h
21.01.2020 - 03.45Uhr-1.1 °C-3.1 °C87 %0.0 W/m²1.2 km/hOst-NO4.0 km/hOst-NO1041.7 hPa0.0 mm0.0 mm/h
21.01.2020 - 03.50Uhr-1.2 °C-3.1 °C87 %0.0 W/m²0.0 km/hOst-NO0.0 km/hNorden1041.7 hPa0.0 mm0.0 mm/h
21.01.2020 - 03.55Uhr-1.2 °C-3.1 °C87 %0.0 W/m²0.7 km/hOst-NO1.8 km/hOst-NO1041.6 hPa0.0 mm0.0 mm/h
21.01.2020 - 04.00Uhr-1.0 °C-2.9 °C87 %0.0 W/m²1.3 km/hOst-NO4.0 km/hOst-NO1041.7 hPa0.0 mm0.0 mm/h
21.01.2020 - 04.05Uhr-1.4 °C-3.4 °C86 %0.0 W/m²1.4 km/hOst-NO4.0 km/hOst-NO1041.6 hPa0.0 mm0.0 mm/h
21.01.2020 - 04.10Uhr-1.5 °C-3.4 °C87 %0.0 W/m²3.3 km/hOst-NO8.3 km/hOst-NO1041.6 hPa0.0 mm0.0 mm/h
21.01.2020 - 04.15Uhr-1.4 °C-3.1 °C88 %0.0 W/m²3.4 km/hOst-NO8.3 km/hOst-NO1041.6 hPa0.0 mm0.0 mm/h
21.01.2020 - 04.20Uhr-1.2 °C-3.0 °C88 %0.0 W/m²1.2 km/hOst-NO4.0 km/hOst-NO1041.6 hPa0.0 mm0.0 mm/h
21.01.2020 - 04.25Uhr-1.1 °C-2.9 °C87 %0.0 W/m²1.8 km/hOst-NO4.0 km/hOst-NO1041.6 hPa0.0 mm0.0 mm/h
21.01.2020 - 04.30Uhr-1.2 °C-3.1 °C87 %0.0 W/m²1.2 km/hOst-NO4.0 km/hOst-NO1041.6 hPa0.0 mm0.0 mm/h
21.01.2020 - 04.35Uhr-1.2 °C-3.1 °C87 %0.0 W/m²2.4 km/hOst-NO5.8 km/hOst-NO1041.6 hPa0.0 mm0.0 mm/h
21.01.2020 - 04.40Uhr-1.5 °C-3.4 °C87 %0.0 W/m²2.4 km/hOst-NO5.8 km/hOst-NO1041.5 hPa0.0 mm0.0 mm/h
21.01.2020 - 04.45Uhr-1.4 °C-3.1 °C88 %0.0 W/m²1.5 km/hOst-NO4.0 km/hOst-NO1041.6 hPa0.0 mm0.0 mm/h
21.01.2020 - 04.50Uhr-1.5 °C-3.4 °C87 %0.0 W/m²1.6 km/hOst-NO4.0 km/hOst-NO1041.6 hPa0.0 mm0.0 mm/h
21.01.2020 - 04.55Uhr-1.8 °C-3.6 °C88 %0.0 W/m²1.8 km/hOst-NO4.0 km/hOst-NO1041.6 hPa0.0 mm0.0 mm/h
21.01.2020 - 05.00Uhr-1.7 °C-3.4 °C88 %0.0 W/m²0.9 km/hOst-NO4.0 km/hOst-NO1041.6 hPa0.0 mm0.0 mm/h
21.01.2020 - 05.05Uhr-1.9 °C-3.6 °C88 %0.0 W/m²2.9 km/hOst-NO5.8 km/hOst-NO1041.6 hPa0.0 mm0.0 mm/h
21.01.2020 - 05.10Uhr-2.1 °C-3.8 °C88 %0.0 W/m²2.3 km/hOst-NO4.0 km/hOst-NO1041.5 hPa0.0 mm0.0 mm/h
21.01.2020 - 05.15Uhr-2.0 °C-3.6 °C89 %0.0 W/m²0.7 km/hOst-NO1.8 km/hOst-NO1041.6 hPa0.0 mm0.0 mm/h
21.01.2020 - 05.20Uhr-1.7 °C-3.3 °C89 %0.0 W/m²2.4 km/hOst-NO4.0 km/hOst-NO1041.6 hPa0.0 mm0.0 mm/h
21.01.2020 - 05.25Uhr-1.8 °C-3.5 °C88 %0.0 W/m²2.9 km/hOst-NO4.0 km/hOst-NO1041.5 hPa0.0 mm0.0 mm/h
21.01.2020 - 05.30Uhr-1.8 °C-3.5 °C88 %0.0 W/m²0.4 km/hOst-NO1.8 km/hOst-NO1041.5 hPa0.0 mm0.0 mm/h
21.01.2020 - 05.35Uhr-1.9 °C-3.5 °C89 %0.0 W/m²1.5 km/hOst-NO4.0 km/hOst-NO1041.4 hPa0.0 mm0.0 mm/h
21.01.2020 - 05.40Uhr-2.1 °C-3.7 °C89 %0.0 W/m²2.1 km/hOst-NO5.8 km/hOst-NO1041.3 hPa0.0 mm0.0 mm/h
21.01.2020 - 05.45Uhr-2.0 °C-3.6 °C89 %0.0 W/m²4.1 km/hOst-NO5.8 km/hOst-NO1041.4 hPa0.0 mm0.0 mm/h
21.01.2020 - 05.50Uhr-2.1 °C-3.7 °C89 %0.0 W/m²2.8 km/hOst-NO5.8 km/hOst-NO1041.5 hPa0.0 mm0.0 mm/h
21.01.2020 - 05.55Uhr-2.2 °C-3.8 °C89 %0.0 W/m²2.7 km/hOst-NO4.0 km/hOst-NO1041.5 hPa0.0 mm0.0 mm/h
21.01.2020 - 06.00Uhr-2.2 °C-3.8 °C89 %0.0 W/m²0.0 km/hOst-NO0.0 km/hNorden1041.5 hPa0.0 mm0.0 mm/h
21.01.2020 - 06.05Uhr-2.3 °C-3.9 °C89 %0.0 W/m²2.0 km/hOst-NO4.0 km/hOst-NO1041.5 hPa0.0 mm0.0 mm/h
21.01.2020 - 06.10Uhr-2.5 °C-4.1 °C89 %0.0 W/m²0.0 km/hOst-NO0.0 km/hNorden1041.6 hPa0.0 mm0.0 mm/h
21.01.2020 - 06.15Uhr-2.5 °C-4.1 °C89 %0.0 W/m²0.7 km/hOst-NO1.8 km/hOst-NO1041.6 hPa0.0 mm0.0 mm/h
21.01.2020 - 06.20Uhr-2.4 °C-4.0 °C89 %0.0 W/m²1.1 km/hOst-NO4.0 km/hOst-NO1041.6 hPa0.0 mm0.0 mm/h
21.01.2020 - 06.25Uhr-2.4 °C-4.0 °C89 %0.0 W/m²0.0 km/hOst-NO0.0 km/hNorden1041.7 hPa0.0 mm0.0 mm/h
21.01.2020 - 06.30Uhr-2.6 °C-4.2 °C89 %0.0 W/m²0.0 km/hOst-NO0.0 km/hNorden1041.7 hPa0.0 mm0.0 mm/h
21.01.2020 - 06.35Uhr-2.7 °C-4.3 °C89 %0.0 W/m²0.0 km/hOst-NO0.0 km/hNorden1041.8 hPa0.0 mm0.0 mm/h
21.01.2020 - 06.40Uhr-2.6 °C-4.2 °C89 %0.0 W/m²2.4 km/hOst-NO4.0 km/hOst-NO1041.8 hPa0.0 mm0.0 mm/h
21.01.2020 - 06.45Uhr-2.4 °C-3.8 °C90 %0.0 W/m²3.4 km/hOst-NO5.8 km/hOst-NO1041.7 hPa0.0 mm0.0 mm/h
21.01.2020 - 06.50Uhr-2.3 °C-3.9 °C89 %0.0 W/m²3.7 km/hOst-NO5.8 km/hOst-NO1041.8 hPa0.0 mm0.0 mm/h
21.01.2020 - 06.55Uhr-2.4 °C-4.0 °C89 %0.0 W/m²2.2 km/hOst-NO4.0 km/hOst-NO1041.8 hPa0.0 mm0.0 mm/h
21.01.2020 - 07.00Uhr-2.6 °C-4.2 °C89 %0.0 W/m²0.0 km/hOst-NO0.0 km/hNorden1041.9 hPa0.0 mm0.0 mm/h
21.01.2020 - 07.05Uhr-2.7 °C-4.3 °C89 %0.0 W/m²0.0 km/hOst-NO0.0 km/hNorden1042.0 hPa0.0 mm0.0 mm/h
21.01.2020 - 07.10Uhr-2.9 °C-4.5 °C89 %0.0 W/m²1.5 km/hOst-NO4.0 km/hOst-NO1042.0 hPa0.0 mm0.0 mm/h
21.01.2020 - 07.15Uhr-3.1 °C-4.6 °C90 %0.0 W/m²0.5 km/hOst-NO1.8 km/hOst-NO1042.0 hPa0.0 mm0.0 mm/h
21.01.2020 - 07.20Uhr-2.9 °C-4.4 °C89 %0.0 W/m²0.0 km/hOst-NO0.0 km/hNorden1042.0 hPa0.0 mm0.0 mm/h
21.01.2020 - 07.25Uhr-2.8 °C-4.3 °C89 %0.0 W/m²0.0 km/hOst-NO0.0 km/hNorden1041.9 hPa0.0 mm0.0 mm/h
21.01.2020 - 07.30Uhr-2.8 °C-4.2 °C90 %0.0 W/m²0.0 km/hOst-NO0.0 km/hNorden1041.9 hPa0.0 mm0.0 mm/h
21.01.2020 - 07.35Uhr-3.0 °C-4.5 °C90 %0.0 W/m²0.0 km/hOst-NO0.0 km/hNorden1042.0 hPa0.0 mm0.0 mm/h
21.01.2020 - 07.40Uhr-3.1 °C-4.5 °C90 %0.0 W/m²0.0 km/hOst-NO0.0 km/hNorden1042.0 hPa0.0 mm0.0 mm/h
21.01.2020 - 07.45Uhr-3.1 °C-4.5 °C90 %0.0 W/m²0.0 km/hOst-NO0.0 km/hNorden1042.1 hPa0.0 mm0.0 mm/h
21.01.2020 - 07.50Uhr-3.2 °C-4.6 °C90 %0.0 W/m²1.7 km/hOst-NO4.0 km/hOst-NO1042.1 hPa0.0 mm0.0 mm/h
21.01.2020 - 07.55Uhr-3.2 °C-4.6 °C90 %0.0 W/m²0.5 km/hOst-NO1.8 km/hOst-NO1042.1 hPa0.0 mm0.0 mm/h
21.01.2020 - 08.00Uhr-3.0 °C-4.4 °C90 %0.0 W/m²0.9 km/hOst-NO4.0 km/hOst-NO1042.1 hPa0.0 mm0.0 mm/h
21.01.2020 - 08.05Uhr-2.8 °C-4.2 °C90 %0.0 W/m²0.0 km/hOst-NO0.0 km/hNorden1042.1 hPa0.0 mm0.0 mm/h
21.01.2020 - 08.10Uhr-2.7 °C-4.1 °C90 %5.0 W/m²0.0 km/hOst-NO0.0 km/hNorden1042.2 hPa0.0 mm0.0 mm/h
21.01.2020 - 08.15Uhr-2.6 °C-4.2 °C89 %9.0 W/m²0.0 km/hOst-NO0.0 km/hNorden1042.2 hPa0.0 mm0.0 mm/h
21.01.2020 - 08.20Uhr-2.4 °C-3.9 °C90 %11.0 W/m²0.0 km/hOst-NO0.0 km/hNorden1042.2 hPa0.0 mm0.0 mm/h
21.01.2020 - 08.25Uhr-2.4 °C-3.8 °C90 %12.0 W/m²0.0 km/hOst-NO0.0 km/hNorden1042.2 hPa0.0 mm0.0 mm/h
21.01.2020 - 08.30Uhr-2.4 °C-3.8 °C90 %16.0 W/m²0.0 km/hOst-NO0.0 km/hNorden1042.2 hPa0.0 mm0.0 mm/h
21.01.2020 - 08.35Uhr-2.3 °C-3.8 °C89 %18.0 W/m²0.0 km/hOst-NO0.0 km/hNorden1042.2 hPa0.0 mm0.0 mm/h
21.01.2020 - 08.40Uhr-2.2 °C-3.8 °C89 %23.0 W/m²0.0 km/hOst-NO0.0 km/hNorden1042.2 hPa0.0 mm0.0 mm/h
21.01.2020 - 08.45Uhr-2.1 °C-3.5 °C90 %25.0 W/m²0.0 km/hOst-NO0.0 km/hNorden1042.1 hPa0.0 mm0.0 mm/h
21.01.2020 - 08.50Uhr-2.1 °C-3.5 °C90 %30.0 W/m²0.0 km/hOst-NO0.0 km/hNorden1042.1 hPa0.0 mm0.0 mm/h
21.01.2020 - 08.55Uhr-2.1 °C-3.5 °C90 %35.0 W/m²0.0 km/hOst-NO0.0 km/hNorden1042.1 hPa0.0 mm0.0 mm/h
21.01.2020 - 09.00Uhr-1.9 °C-3.4 °C90 %37.0 W/m²0.0 km/hOst-NO0.0 km/hNorden1042.1 hPa0.0 mm0.0 mm/h
21.01.2020 - 09.05Uhr-1.9 °C-3.5 °C89 %46.0 W/m²0.0 km/hOst-NO0.0 km/hNorden1042.1 hPa0.0 mm0.0 mm/h
21.01.2020 - 09.10Uhr-1.8 °C-3.4 °C89 %47.0 W/m²0.0 km/hOst-NO0.0 km/hNorden1042.1 hPa0.0 mm0.0 mm/h
21.01.2020 - 09.15Uhr-1.8 °C-3.2 °C90 %47.0 W/m²0.0 km/hOst-NO0.0 km/hNorden1042.0 hPa0.0 mm0.0 mm/h
21.01.2020 - 09.20Uhr-1.7 °C-3.1 °C90 %53.0 W/m²0.0 km/hOst-NO0.0 km/hNorden1042.0 hPa0.0 mm0.0 mm/h
21.01.2020 - 09.25Uhr-1.6 °C-3.2 °C89 %53.0 W/m²0.0 km/hOst-NO0.0 km/hNorden1042.1 hPa0.0 mm0.0 mm/h
21.01.2020 - 09.30Uhr-1.6 °C-3.1 °C89 %56.0 W/m²0.7 km/hOst-NO1.8 km/hOst-NO1042.1 hPa0.0 mm0.0 mm/h
21.01.2020 - 09.35Uhr-1.6 °C-3.0 °C90 %60.0 W/m²0.0 km/hOst-NO0.0 km/hNorden1042.1 hPa0.0 mm0.0 mm/h